Time;durP1;ratioP1;P1;durP2;ratioP2;P2;SDS_P1;SDS_P2;PMS_P1;PMS_P2;Temp;Humidity;BMP_temperature;BMP_pressure;BME280_temperature;BME280_humidity;BME280_pressure;Samples;Min_cycle;Max_cycle;Signal;HPM_P1;HPM_P2
2021/03/11 00:00:55;;;;;;;27.67;19.23;;;;;;;-2.23;90.13;99701.34;4908196;29;20253;-89
2021/03/11 00:03:48;;;;;;;26.83;18.43;;;;;;;-2.09;90.51;99736.88;4910448;29;20286;-94
2021/03/11 00:06:44;;;;;;;28.73;19.80;;;;;;;-2.12;90.36;99731.91;4924250;29;20230;-89
2021/03/11 00:09:35;;;;;;;28.53;19.23;;;;;;;-2.09;90.39;99734.25;4938245;29;20230;-93
2021/03/11 00:12:17;;;;;;;29.33;20.13;;;;;;;-2.24;89.92;99715.47;4940075;29;20296;-88
2021/03/11 00:15:02;;;;;;;27.87;19.50;;;;;;;-2.27;90.38;99720.97;4942099;29;20225;-89
2021/03/11 00:17:56;;;;;;;29.77;19.80;;;;;;;-2.20;90.43;99734.38;4941592;29;20684;-85
2021/03/11 00:20:54;;;;;;;28.43;18.73;;;;;;;-2.27;90.17;99716.56;4926551;29;20237;-91
2021/03/11 00:23:42;;;;;;;28.20;19.70;;;;;;;-2.13;90.26;99740.75;4911006;29;20637;-91
2021/03/11 00:26:30;;;;;;;26.63;19.00;;;;;;;-2.16;90.49;99723.47;4925854;29;20233;-86
2021/03/11 00:29:28;;;;;;;29.10;18.30;;;;;;;-2.30;90.30;99689.75;4927643;29;20675;-88
2021/03/11 00:32:27;;;;;;;23.50;17.37;;;;;;;-2.14;90.02;99715.44;4940298;29;20237;-92
2021/03/11 00:35:23;;;;;;;25.10;17.77;;;;;;;-2.15;89.87;99719.91;4941228;29;20253;-83
2021/03/11 00:38:20;;;;;;;22.87;17.67;;;;;;;-2.20;90.15;99711.59;4908510;29;20238;-88
2021/03/11 00:41:16;;;;;;;23.03;16.73;;;;;;;-2.09;89.96;99726.38;4922698;29;20633;-86
2021/03/11 00:43:58;;;;;;;22.37;16.30;;;;;;;-2.09;90.06;99700.13;4921718;29;20226;-80
2021/03/11 00:46:40;;;;;;;25.27;17.50;;;;;;;-2.02;89.80;99704.69;4913509;29;20225;-93
2021/03/11 00:49:30;;;;;;;25.40;17.67;;;;;;;-2.06;89.53;99702.50;4923882;29;20233;-92
2021/03/11 00:52:12;;;;;;;25.93;17.53;;;;;;;-2.17;89.96;99692.09;4930608;29;20222;-92
2021/03/11 00:54:54;;;;;;;24.53;17.67;;;;;;;-2.11;89.86;99695.03;4905121;29;20225;-89
2021/03/11 00:57:48;;;;;;;24.50;17.63;;;;;;;-2.05;89.59;99689.19;4904131;29;20234;-93
2021/03/11 01:00:42;;;;;;;22.90;17.13;;;;;;;-1.99;89.87;99700.97;4923257;29;20249;-85
2021/03/11 01:03:45;;;;;;;24.97;17.03;;;;;;;-2.15;89.24;99654.28;4878811;29;20697;-92
2021/03/11 01:06:32;;;;;;;22.27;16.83;;;;;;;-2.03;89.04;99668.06;4876522;29;20238;-91
2021/03/11 01:09:24;;;;;;;24.17;16.40;;;;;;;-2.12;89.01;99656.63;4912038;29;20758;-88
2021/03/11 01:12:27;;;;;;;24.40;16.80;;;;;;;-1.98;89.02;99666.69;4935494;29;20230;-91
2021/03/11 01:15:26;;;;;;;23.80;16.40;;;;;;;-2.05;88.94;99649.81;4925235;29;20230;-90
2021/03/11 01:18:17;;;;;;;23.97;16.70;;;;;;;-1.95;88.56;99665.56;4924897;29;20230;-88
2021/03/11 01:21:00;;;;;;;23.53;16.10;;;;;;;-1.95;88.68;99663.78;4942024;29;20231;-87
2021/03/11 01:23:47;;;;;;;23.93;15.80;;;;;;;-1.93;88.27;99664.47;4928080;29;20237;-94
2021/03/11 01:26:31;;;;;;;24.87;16.73;;;;;;;-1.97;88.47;99659.66;4942530;29;20233;-88
2021/03/11 01:29:19;;;;;;;23.90;17.13;;;;;;;-2.09;88.50;99637.13;4889375;29;20234;-90
2021/03/11 01:32:02;;;;;;;24.03;16.77;;;;;;;-2.29;88.54;99607.44;4891860;29;20234;-85
2021/03/11 01:34:47;;;;;;;23.73;16.77;;;;;;;-2.12;88.59;99625.09;4939620;29;20580;-93
2021/03/11 01:37:31;;;;;;;22.70;16.53;;;;;;;-2.08;89.06;99631.75;4934470;29;20320;-85
2021/03/11 01:40:18;;;;;;;22.17;16.33;;;;;;;-2.34;89.09;99594.75;4920611;29;20320;-86
2021/03/11 01:43:04;;;;;;;23.43;16.70;;;;;;;-2.27;89.02;99605.50;4913151;29;20724;-90
2021/03/11 01:45:52;;;;;;;24.83;17.23;;;;;;;-2.23;88.94;99609.50;4939682;29;20233;-88
2021/03/11 01:48:39;;;;;;;22.63;16.13;;;;;;;-2.34;88.67;99591.28;4925325;29;20715;-88
2021/03/11 01:51:28;;;;;;;23.20;16.53;;;;;;;-2.27;88.67;99606.31;4939145;29;20225;-89
2021/03/11 01:54:10;;;;;;;24.10;16.80;;;;;;;-2.37;88.94;99591.53;4924406;29;20241;-88
2021/03/11 01:56:55;;;;;;;24.43;16.73;;;;;;;-2.43;89.35;99589.50;4925168;29;20316;-91
2021/03/11 01:59:53;;;;;;;25.30;17.07;;;;;;;-2.46;89.05;99602.88;4920497;29;20321;-93
2021/03/11 02:02:53;;;;;;;23.70;16.53;;;;;;;-2.55;89.09;99604.53;4924735;29;20221;-87
2021/03/11 02:05:53;;;;;;;23.30;16.63;;;;;;;-2.83;88.96;99565.97;4927284;29;20244;-88
2021/03/11 02:08:45;;;;;;;22.40;16.07;;;;;;;-2.81;89.45;99570.13;4925191;29;20229;-91
2021/03/11 02:11:35;;;;;;;24.57;16.93;;;;;;;-2.79;89.09;99583.91;4939501;29;20233;-94
2021/03/11 02:14:54;;;;;;;23.80;15.97;;;;;;;-2.88;89.36;99578.66;4925406;29;20222;-86
2021/03/11 02:17:58;;;;;;;24.20;16.73;;;;;;;-3.07;90.04;99555.03;4939764;29;20233;-93
2021/03/11 02:21:15;;;;;;;24.97;17.20;;;;;;;-3.08;90.05;99553.41;4922524;29;20274;-91
2021/03/11 02:24:25;;;;;;;24.17;16.67;;;;;;;-3.09;90.40;99556.97;4911409;29;20520;-88
2021/03/11 02:27:36;;;;;;;26.60;16.87;;;;;;;-3.04;91.09;99554.78;4924679;29;20257;-86
2021/03/11 02:30:32;;;;;;;24.77;16.83;;;;;;;-3.01;90.81;99554.50;4902816;29;20234;-94
2021/03/11 02:33:24;;;;;;;23.53;16.33;;;;;;;-2.96;90.91;99545.28;4919778;29;20654;-94
2021/03/11 02:36:20;;;;;;;26.57;16.97;;;;;;;-3.01;90.51;99516.00;4906202;29;20230;-86
2021/03/11 02:39:20;;;;;;;23.10;15.47;;;;;;;-3.02;90.34;99519.59;4890884;29;20229;-86
2021/03/11 02:42:13;;;;;;;22.33;16.17;;;;;;;-2.87;89.96;99526.09;4919529;29;20273;-93
2021/03/11 02:45:13;;;;;;;21.53;14.47;;;;;;;-2.80;89.63;99523.78;4909567;29;20232;-95
2021/03/11 02:48:07;;;;;;;23.10;15.13;;;;;;;-3.11;89.55;99486.34;4911498;29;20321;-90
2021/03/11 02:50:48;;;;;;;22.40;15.73;;;;;;;-3.08;89.45;99480.84;4932318;29;20225;-90
2021/03/11 02:53:36;;;;;;;21.97;14.50;;;;;;;-2.93;89.61;99507.47;4938485;29;20221;-92
2021/03/11 02:56:36;;;;;;;21.40;15.23;;;;;;;-2.86;89.64;99524.31;4925329;29;20240;-91
2021/03/11 02:59:30;;;;;;;22.83;15.37;;;;;;;-2.97;89.84;99506.91;4938546;29;20365;-92
2021/03/11 03:02:21;;;;;;;21.40;15.07;;;;;;;-3.06;90.07;99502.47;4937985;29;20236;-85
2021/03/11 03:05:07;;;;;;;23.23;15.47;;;;;;;-3.00;89.99;99511.59;4922164;29;20313;-94
2021/03/11 03:07:45;;;;;;;19.10;14.57;;;;;;;-3.15;89.76;99504.13;4938314;29;20316;-93
2021/03/11 03:10:41;;;;;;;22.70;15.70;;;;;;;-3.26;89.78;99495.56;4922553;29;20261;-95
2021/03/11 03:13:30;;;;;;;22.47;15.37;;;;;;;-3.17;90.16;99502.59;4924455;29;20258;-94
2021/03/11 03:16:23;;;;;;;23.47;15.40;;;;;;;-3.35;89.88;99481.47;4936856;29;20240;-88
2021/03/11 03:19:04;;;;;;;21.57;14.47;;;;;;;-3.41;89.75;99489.06;4937497;29;20229;-90
2021/03/11 03:21:47;;;;;;;21.97;15.30;;;;;;;-3.44;89.46;99503.25;4936980;29;20225;-93
2021/03/11 03:24:32;;;;;;;20.00;14.73;;;;;;;-3.43;89.62;99514.53;4903233;29;20258;-86
2021/03/11 03:27:09;;;;;;;23.43;15.53;;;;;;;-3.62;89.63;99492.56;4932502;29;20222;-91
2021/03/11 03:29:55;;;;;;;23.17;15.20;;;;;;;-3.57;89.77;99489.56;4936958;29;20241;-91
2021/03/11 03:32:35;;;;;;;20.87;14.87;;;;;;;-3.79;89.93;99477.50;4906732;29;20567;-86
2021/03/11 03:35:22;;;;;;;24.37;15.37;;;;;;;-3.78;90.21;99473.91;4936607;29;20221;-84
2021/03/11 03:38:11;;;;;;;23.30;15.97;;;;;;;-3.87;90.54;99472.09;4936595;29;20229;-89
2021/03/11 03:41:08;;;;;;;22.10;15.50;;;;;;;-3.83;90.11;99480.53;4936420;29;20312;-92
2021/03/11 03:43:57;;;;;;;23.27;15.10;;;;;;;-3.82;90.15;99487.41;4937674;29;20717;-89
2021/03/11 03:46:48;;;;;;;22.13;14.50;;;;;;;-3.88;89.86;99459.16;4937944;29;20328;-86
2021/03/11 03:49:39;;;;;;;21.83;15.17;;;;;;;-4.03;90.07;99433.34;4940234;29;20233;-92
2021/03/11 03:52:31;;;;;;;24.47;15.77;;;;;;;-3.81;90.30;99473.34;4916722;29;20298;-83
2021/03/11 03:55:17;;;;;;;24.00;16.20;;;;;;;-3.80;90.42;99480.25;4912485;29;20237;-88
2021/03/11 03:58:08;;;;;;;25.10;16.13;;;;;;;-3.91;90.97;99462.00;4926511;29;20233;-86
2021/03/11 04:00:54;;;;;;;22.90;16.60;;;;;;;-3.93;90.78;99448.25;4923551;29;20229;-86
2021/03/11 04:03:43;;;;;;;21.40;16.17;;;;;;;-4.08;89.92;99419.00;4923996;29;20331;-87
2021/03/11 04:06:34;;;;;;;24.47;17.77;;;;;;;-3.82;89.90;99472.53;4908606;29;20222;-91
2021/03/11 04:09:28;;;;;;;24.97;17.13;;;;;;;-3.87;90.46;99466.84;4926076;29;20229;-94
2021/03/11 04:12:24;;;;;;;25.00;16.13;;;;;;;-4.07;90.46;99429.34;4914867;29;20672;-95
2021/03/11 04:15:11;;;;;;;26.90;17.83;;;;;;;-3.89;91.05;99445.22;4925795;29;20229;-85
2021/03/11 04:18:01;;;;;;;27.23;18.20;;;;;;;-3.92;90.98;99440.28;4909838;29;20229;-92
2021/03/11 04:20:52;;;;;;;26.47;17.17;;;;;;;-4.11;91.37;99395.72;4926207;29;20221;-93
2021/03/11 04:23:40;;;;;;;25.43;17.03;;;;;;;-3.98;91.16;99440.78;4923753;29;20529;-90
2021/03/11 04:26:48;;;;;;;26.13;16.93;;;;;;;-4.10;90.94;99415.66;4927453;29;20229;-91
2021/03/11 04:29:38;;;;;;;24.07;17.17;;;;;;;-3.89;91.16;99437.38;4940596;29;20312;-86
2021/03/11 04:32:23;;;;;;;24.77;17.27;;;;;;;-3.96;91.87;99409.22;4894236;29;20237;-89
2021/03/11 04:35:18;;;;;;;26.00;16.37;;;;;;;-4.12;90.56;99399.28;4926180;29;20280;-92
2021/03/11 04:38:09;;;;;;;25.70;16.33;;;;;;;-4.00;91.21;99406.06;4940044;29;20657;-92
2021/03/11 04:41:05;;;;;;;25.63;17.00;;;;;;;-3.90;91.84;99413.94;4925843;29;20594;-89
2021/03/11 04:43:58;;;;;;;24.60;16.50;;;;;;;-3.97;91.46;99415.44;4926507;29;20293;-93
2021/03/11 04:46:53;;;;;;;23.90;16.10;;;;;;;-4.04;91.56;99412.53;4909561;29;20300;-89
2021/03/11 04:49:50;;;;;;;25.50;16.77;;;;;;;-3.91;91.64;99423.59;4925336;29;20390;-87
2021/03/11 04:52:45;;;;;;;25.53;17.07;;;;;;;-4.08;91.96;99384.97;4907311;29;20261;-91
2021/03/11 04:55:46;;;;;;;26.47;17.63;;;;;;;-4.01;91.71;99386.06;4891611;29;20585;-92
2021/03/11 04:58:42;;;;;;;23.60;15.67;;;;;;;-4.05;91.69;99387.31;4890438;29;20234;-91
2021/03/11 05:01:33;;;;;;;25.90;16.97;;;;;;;-3.91;91.53;99414.91;4916289;29;20233;-86
2021/03/11 05:04:29;;;;;;;24.77;15.83;;;;;;;-4.11;91.57;99377.41;4925015;29;20239;-87
2021/03/11 05:07:21;;;;;;;24.07;16.63;;;;;;;-3.85;91.69;99404.72;4908637;29;20253;-91
2021/03/11 05:10:11;;;;;;;23.97;15.77;;;;;;;-3.93;91.81;99404.59;4912255;29;20320;-90
2021/03/11 05:13:06;;;;;;;26.60;16.70;;;;;;;-3.89;91.84;99405.13;4904024;29;20230;-93
2021/03/11 05:15:58;;;;;;;27.77;17.57;;;;;;;-3.83;92.16;99391.53;4925192;29;20360;-91
2021/03/11 05:18:55;;;;;;;26.07;17.10;;;;;;;-3.75;91.76;99410.00;4925518;29;20221;-85
2021/03/11 05:21:44;;;;;;;26.47;17.30;;;;;;;-3.66;91.42;99411.81;4925193;29;20280;-94
2021/03/11 05:24:44;;;;;;;25.67;17.43;;;;;;;-3.70;91.49;99398.16;4925324;29;20503;-95
2021/03/11 05:27:42;;;;;;;28.67;17.87;;;;;;;-3.57;91.41;99411.81;4926010;29;20261;-90
2021/03/11 05:30:38;;;;;;;26.00;17.17;;;;;;;-3.52;91.32;99408.81;4939117;29;20229;-91
2021/03/11 05:33:31;;;;;;;27.70;18.23;;;;;;;-3.45;91.11;99385.53;4919420;29;20250;-93
2021/03/11 05:36:10;;;;;;;28.37;18.30;;;;;;;-3.30;90.83;99374.47;4894320;29;20225;-85
2021/03/11 05:39:06;;;;;;;32.07;19.30;;;;;;;-3.25;90.97;99348.69;4911875;29;20297;-92
2021/03/11 05:41:54;;;;;;;28.80;19.37;;;;;;;-3.01;90.83;99366.59;4909922;29;20236;-92
2021/03/11 05:44:37;;;;;;;30.37;17.93;;;;;;;-2.77;90.67;99389.75;4906743;29;20244;-81
2021/03/11 05:47:24;;;;;;;31.20;18.77;;;;;;;-2.89;89.66;99333.22;4925785;29;20233;-91
2021/03/11 05:50:13;;;;;;;28.67;17.87;;;;;;;-2.58;89.00;99365.28;4916909;29;20321;-82
2021/03/11 05:53:06;;;;;;;27.33;17.57;;;;;;;-2.38;88.62;99377.38;4903717;29;20238;-94
2021/03/11 05:56:02;;;;;;;28.57;18.43;;;;;;;-2.27;88.14;99374.56;4907281;29;20536;-87
2021/03/11 05:58:58;;;;;;;24.80;17.90;;;;;;;-2.13;87.54;99373.25;4886472;29;20322;-92
2021/03/11 06:01:53;;;;;;;27.70;18.47;;;;;;;-2.12;87.05;99360.00;4906955;29;20253;-85
2021/03/11 06:04:49;;;;;;;29.30;18.83;;;;;;;-2.15;86.95;99355.03;4890559;29;20285;-90
2021/03/11 06:07:42;;;;;;;27.23;18.00;;;;;;;-1.96;86.93;99362.00;4890406;29;20237;-91
2021/03/11 06:10:36;;;;;;;27.60;18.97;;;;;;;-1.92;86.18;99353.69;4919431;29;20574;-88
2021/03/11 06:13:30;;;;;;;29.73;18.77;;;;;;;-1.66;86.27;99369.53;4906251;29;20662;-87
2021/03/11 06:16:32;;;;;;;26.87;18.33;;;;;;;-1.55;86.46;99360.63;4906019;29;20317;-94
2021/03/11 06:19:30;;;;;;;26.73;17.60;;;;;;;-1.59;85.86;99359.28;4887823;29;20240;-85
2021/03/11 06:22:24;;;;;;;26.63;18.30;;;;;;;-1.53;85.61;99343.72;4888213;29;20227;-86
2021/03/11 06:25:11;;;;;;;28.80;18.50;;;;;;;-1.37;85.37;99349.13;4888032;29;20639;-92
2021/03/11 06:28:09;;;;;;;30.90;18.47;;;;;;;-1.10;84.53;99345.59;4914162;29;20668;-81
2021/03/11 06:30:53;;;;;;;26.13;17.67;;;;;;;-0.73;83.74;99366.41;4906402;29;20321;-88
2021/03/11 06:33:49;;;;;;;28.23;17.87;;;;;;;-0.52;82.30;99361.63;4922189;29;20257;-93
2021/03/11 06:36:50;;;;;;;27.33;18.47;;;;;;;-0.28;81.60;99357.47;4921407;29;20222;-89
2021/03/11 06:39:45;;;;;;;25.07;17.70;;;;;;;-0.17;80.83;99330.84;4927752;29;20264;-89
2021/03/11 06:42:38;;;;;;;27.17;17.67;;;;;;;0.38;79.35;99360.16;4922518;29;20246;-79
2021/03/11 06:46:27;;;;;;;26.07;17.57;;;;;;;0.50;77.63;99302.69;4945282;23;21336;-80
2021/03/11 06:49:45;;;;;;;24.60;16.90;;;;;;;0.90;75.84;99337.00;4937157;29;20234;-80
2021/03/11 06:53:35;;;;;;;25.50;16.93;;;;;;;1.28;74.87;99343.41;4928485;23;20233;-80
2021/03/11 06:57:00;;;;;;;22.27;15.90;;;;;;;1.46;74.36;99341.38;4969185;23;20257;-79
2021/03/11 07:00:11;;;;;;;26.30;17.00;;;;;;;1.57;73.26;99338.41;4939173;29;20226;-80
2021/03/11 07:03:03;;;;;;;24.90;16.37;;;;;;;1.70;73.52;99329.94;4968047;23;20238;-80
2021/03/11 07:05:58;;;;;;;21.97;16.30;;;;;;;1.71;73.60;99319.22;4943188;29;20235;-80
2021/03/11 07:09:12;;;;;;;25.50;17.20;;;;;;;2.02;73.15;99329.81;4951786;29;20225;-83
2021/03/11 07:12:03;;;;;;;20.40;15.90;;;;;;;2.29;71.41;99314.50;4954347;29;20237;-81
2021/03/11 07:14:53;;;;;;;22.10;15.97;;;;;;;2.71;70.76;99329.91;4952081;29;20293;-81
2021/03/11 07:17:37;;;;;;;24.80;17.17;;;;;;;3.03;70.42;99319.06;4950945;29;20229;-80
2021/03/11 07:20:28;;;;;;;21.97;16.37;;;;;;;3.37;68.91;99316.75;4953586;29;20233;-80
2021/03/11 07:23:14;;;;;;;23.27;16.97;;;;;;;3.47;67.83;99319.94;4942749;29;20225;-82
2021/03/11 07:26:13;;;;;;;22.43;16.50;;;;;;;3.63;67.76;99326.09;4957637;29;20221;-81
2021/03/11 07:29:22;;;;;;;27.23;17.30;;;;;;;3.84;68.22;99329.63;4946088;29;20228;-82
2021/03/11 07:32:11;;;;;;;22.30;17.17;;;;;;;3.93;67.84;99309.97;4916598;29;20514;-82
2021/03/11 07:34:48;;;;;;;23.63;17.87;;;;;;;3.95;67.78;99300.03;4938037;29;20229;-84
2021/03/11 07:38:10;;;;;;;26.07;17.37;;;;;;;4.22;66.41;99290.53;4927829;29;20228;-80
2021/03/11 07:41:10;;;;;;;20.90;16.00;;;;;;;4.48;66.17;99313.88;4963928;23;20305;-80
2021/03/11 07:45:03;;;;;;;23.17;16.87;;;;;;;4.62;64.87;99293.63;4940510;24;20229;-79
2021/03/11 07:47:49;;;;;;;24.90;17.27;;;;;;;5.09;64.06;99287.69;4937146;23;20237;-80
2021/03/11 07:50:55;;;;;;;25.10;16.67;;;;;;;5.05;63.68;99289.91;4978066;23;20241;-80
2021/03/11 07:54:49;;;;;;;23.77;17.43;;;;;;;5.62;61.63;99287.03;4958436;23;20191;-80
2021/03/11 07:58:17;;;;;;;24.07;17.53;;;;;;;6.02;61.09;99284.59;4956900;29;20229;-79
2021/03/11 08:01:19;;;;;;;24.27;18.33;;;;;;;6.12;62.46;99272.56;4953449;23;20244;-80
2021/03/11 08:04:21;;;;;;;21.87;17.00;;;;;;;6.23;61.32;99278.31;4944774;23;20289;-80
2021/03/11 08:07:23;;;;;;;24.57;17.37;;;;;;;6.14;60.89;99281.16;4939660;29;20221;-80
2021/03/11 08:10:02;;;;;;;26.43;18.20;;;;;;;6.38;60.72;99268.34;4937384;29;20232;-81
2021/03/11 08:12:46;;;;;;;25.23;17.27;;;;;;;6.60;60.91;99256.50;4951049;23;20249;-80
2021/03/11 08:15:42;;;;;;;24.13;18.10;;;;;;;7.17;60.55;99269.22;4973640;23;20210;-80
2021/03/11 08:18:51;;;;;;;26.90;17.77;;;;;;;7.42;58.40;99253.38;4964207;23;20226;-78
2021/03/11 08:23:03;;;;;;;24.20;17.97;;;;;;;7.89;57.41;99270.88;4941578;29;20229;-79
2021/03/11 08:26:11;;;;;;;23.33;17.33;;;;;;;8.20;55.75;99270.16;4957717;29;20224;-79
2021/03/11 08:29:43;;;;;;;22.63;17.57;;;;;;;8.27;55.60;99263.75;4943384;23;20228;-80
2021/03/11 08:33:00;;;;;;;22.13;17.47;;;;;;;8.37;55.65;99252.63;4934516;29;20186;-80
2021/03/11 08:36:33;;;;;;;20.67;17.00;;;;;;;8.34;55.85;99247.75;4955921;29;20230;-79
2021/03/11 08:39:46;;;;;;;20.50;16.53;;;;;;;8.32;55.17;99237.28;4953877;29;20590;-79
2021/03/11 08:42:54;;;;;;;22.10;16.93;;;;;;;8.49;53.32;99231.44;4963586;23;20214;-80
2021/03/11 08:46:00;;;;;;;18.57;15.60;;;;;;;8.90;51.45;99213.03;4933681;29;20215;-80
2021/03/11 08:49:20;;;;;;;20.70;17.03;;;;;;;9.20;50.35;99211.28;4922935;29;20213;-79
2021/03/11 08:52:47;;;;;;;30.50;16.40;;;;;;;9.80;49.06;99216.81;5137956;23;20229;-81
2021/03/11 08:55:53;;;;;;;25.20;18.93;;;;;;;9.94;48.11;99188.03;4924710;29;20221;-79
2021/03/11 08:59:51;;;;;;;20.03;16.53;;;;;;;10.36;46.80;99202.31;4938291;29;20221;-81
2021/03/11 09:02:52;;;;;;;20.27;15.77;;;;;;;10.30;46.74;99204.03;4923823;29;20246;-80
2021/03/11 09:06:16;;;;;;;19.70;15.73;;;;;;;10.39;46.11;99200.00;4937050;29;20182;-80
2021/03/11 09:09:16;;;;;;;22.77;19.43;;;;;;;10.34;46.04;99175.75;4935339;29;20238;-78
2021/03/11 09:12:38;;;;;;;19.20;15.87;;;;;;;10.64;44.73;99167.66;4935452;29;20606;-79
2021/03/11 09:16:10;;;;;;;20.67;16.80;;;;;;;10.72;44.69;99167.34;4939906;23;20241;-78
2021/03/11 09:19:41;;;;;;;25.33;21.37;;;;;;;10.66;45.32;99151.34;4958810;23;20263;-78
2021/03/11 09:22:56;;;;;;;22.03;17.53;;;;;;;10.33;45.09;99109.03;4944605;29;20236;-78
2021/03/11 09:26:07;;;;;;;20.13;16.83;;;;;;;10.34;45.60;99135.59;4955113;29;20210;-78
2021/03/11 09:29:24;;;;;;;19.07;15.47;;;;;;;10.16;46.15;99149.06;4951021;23;20237;-78
2021/03/11 09:32:16;;;;;;;17.57;15.00;;;;;;;10.19;45.87;99139.75;4944597;24;20293;-78
2021/03/11 09:35:28;;;;;;;18.30;15.23;;;;;;;10.03;45.63;99085.78;4906331;23;20237;-77
2021/03/11 09:38:38;;;;;;;18.93;15.23;;;;;;;10.54;45.02;99135.28;4938389;29;20225;-78
2021/03/11 09:41:41;;;;;;;20.13;15.33;;;;;;;10.87;44.46;99126.69;4955813;29;20232;-78
2021/03/11 09:44:55;;;;;;;16.67;14.87;;;;;;;11.17;43.45;99124.66;4954916;29;20304;-78
2021/03/11 09:47:52;;;;;;;17.70;14.73;;;;;;;11.33;41.94;99115.91;4961287;23;20228;-77
2021/03/11 09:51:20;;;;;;;16.30;13.63;;;;;;;11.20;41.71;99120.72;4933732;29;20300;-78
2021/03/11 09:55:03;;;;;;;17.23;13.13;;;;;;;10.99;41.66;99104.19;4961343;23;20225;-78
2021/03/11 09:58:45;;;;;;;20.67;18.40;;;;;;;10.63;42.90;99107.09;4964288;23;20229;-78
2021/03/11 10:01:48;;;;;;;24.90;19.13;;;;;;;10.18;43.53;99098.75;4954329;29;20225;-78
2021/03/11 10:04:54;;;;;;;23.13;18.87;;;;;;;9.88;44.10;99085.41;4923596;29;20222;-81
2021/03/11 10:07:58;;;;;;;20.00;16.13;;;;;;;9.77;44.19;99077.34;4956988;29;20199;-78
2021/03/11 10:11:14;;;;;;;15.80;13.30;;;;;;;10.13;43.87;99099.41;4954365;29;20224;-78
2021/03/11 10:15:18;;;;;;;15.03;13.07;;;;;;;10.06;44.12;99081.84;4961839;23;20236;-77
2021/03/11 10:19:04;;;;;;;16.50;13.33;;;;;;;9.93;44.32;99084.72;4974514;23;20249;-76
2021/03/11 10:22:27;;;;;;;16.63;13.77;;;;;;;9.66;44.58;99033.44;4915484;29;20240;-77
2021/03/11 10:25:35;;;;;;;18.07;13.67;;;;;;;9.69;45.13;99057.91;4958244;23;20237;-79
2021/03/11 10:28:43;;;;;;;16.73;13.10;;;;;;;9.52;45.46;99053.38;4905208;29;20257;-82
2021/03/11 10:31:58;;;;;;;14.83;13.10;;;;;;;9.59;45.57;99062.16;4954673;29;20249;-79
2021/03/11 10:35:06;;;;;;;17.77;13.53;;;;;;;9.62;45.06;99065.19;4921508;29;20253;-79
2021/03/11 10:38:18;;;;;;;17.23;13.10;;;;;;;9.84;44.67;99056.66;4922808;29;20267;-80
2021/03/11 10:41:23;;;;;;;17.33;13.87;;;;;;;10.04;43.74;99060.66;4935964;29;20230;-78
2021/03/11 10:44:30;;;;;;;18.77;14.60;;;;;;;10.18;43.94;99061.28;5075872;23;20240;-78
2021/03/11 10:48:03;;;;;;;17.77;13.67;;;;;;;10.20;43.32;99045.81;4933355;29;20260;-79
2021/03/11 10:51:24;;;;;;;17.23;13.90;;;;;;;10.49;43.15;99049.47;4934658;29;20643;-79
2021/03/11 10:54:39;;;;;;;24.67;19.47;;;;;;;10.69;42.38;99055.25;4913597;29;20237;-80
2021/03/11 10:57:42;;;;;;;19.77;14.10;;;;;;;10.81;41.63;99041.84;4944874;23;20263;-78
2021/03/11 11:00:53;;;;;;;19.23;13.50;;;;;;;11.22;40.62;99071.16;4934600;29;20225;-78
2021/03/11 11:04:08;;;;;;;17.73;13.30;;;;;;;11.56;40.00;99057.88;4914324;29;20222;-80
2021/03/11 11:07:25;;;;;;;18.27;12.83;;;;;;;11.95;39.44;99065.03;4910377;29;20229;-78
2021/03/11 11:10:20;;;;;;;12.73;10.90;;;;;;;11.78;39.45;99032.00;4901546;29;20238;-78
2021/03/11 11:13:16;;;;;;;12.20;10.03;;;;;;;11.59;39.28;99042.09;4934997;29;20257;-79
2021/03/11 11:16:08;;;;;;;10.70;9.60;;;;;;;11.17;39.80;99030.81;4931385;29;20238;-78
2021/03/11 11:19:38;;;;;;;11.80;9.70;;;;;;;11.16;39.92;99077.44;4947053;23;20240;-78
2021/03/11 11:22:30;;;;;;;11.97;9.10;;;;;;;11.14;39.58;99068.03;4913181;29;20214;-79
2021/03/11 11:25:58;;;;;;;11.40;9.50;;;;;;;11.26;39.42;99072.31;4951260;29;20653;-77
2021/03/11 11:29:46;;;;;;;11.60;9.80;;;;;;;11.82;38.67;99057.28;4953331;29;20239;-78
2021/03/11 11:32:52;;;;;;;12.13;9.97;;;;;;;11.96;39.66;99023.72;4953125;29;20288;-80
2021/03/11 11:35:47;;;;;;;13.70;11.03;;;;;;;12.01;39.16;99018.44;4894553;29;20229;-79
2021/03/11 11:39:00;;;;;;;13.93;11.50;;;;;;;12.03;39.21;98992.19;4973546;23;20301;-80
2021/03/11 11:42:12;;;;;;;14.40;11.30;;;;;;;11.76;38.29;98956.28;4928182;24;20230;-80
2021/03/11 11:45:05;;;;;;;13.00;11.07;;;;;;;11.53;37.84;98962.56;4932632;29;20230;-78
2021/03/11 11:48:24;;;;;;;11.60;9.80;;;;;;;11.21;38.42;98970.31;4949729;23;20222;-78
2021/03/11 11:51:40;;;;;;;12.90;10.90;;;;;;;11.13;39.04;98973.38;4933959;29;20202;-78
2021/03/11 11:54:26;;;;;;;11.67;10.23;;;;;;;11.31;39.10;98973.19;4933416;29;20218;-80
2021/03/11 11:57:29;;;;;;;12.50;10.70;;;;;;;11.67;38.06;98949.66;4933880;29;20232;-78
2021/03/11 12:00:25;;;;;;;12.43;10.87;;;;;;;11.84;38.25;98966.63;4930008;29;20246;-82
2021/03/11 12:03:21;;;;;;;12.73;10.87;;;;;;;11.95;38.14;98972.94;4933444;29;20226;-79
2021/03/11 12:06:25;;;;;;;14.33;12.00;;;;;;;11.69;38.06;98972.53;4933280;29;20242;-79
2021/03/11 12:09:55;;;;;;;10.97;9.80;;;;;;;11.65;38.62;98979.44;4937007;29;20217;-79
2021/03/11 12:13:56;;;;;;;11.97;9.50;;;;;;;11.75;38.38;98971.59;4936870;29;20210;-81
2021/03/11 12:17:16;;;;;;;11.43;8.67;;;;;;;11.40;38.13;98962.88;4936875;29;20250;-77
2021/03/11 12:20:45;;;;;;;12.23;9.20;;;;;;;11.10;38.97;98928.28;4935306;29;20229;-78
2021/03/11 12:24:02;;;;;;;13.33;10.17;;;;;;;10.91;40.37;98948.28;4904970;29;20250;-78
2021/03/11 12:26:50;;;;;;;13.90;11.10;;;;;;;10.79;41.32;98942.94;4932489;29;20347;-79
2021/03/11 12:29:39;;;;;;;14.77;11.50;;;;;;;10.68;41.40;98957.19;4933572;29;20250;-81
2021/03/11 12:32:38;;;;;;;14.43;12.03;;;;;;;10.51;42.31;98942.88;4933906;29;20240;-79
2021/03/11 12:35:35;;;;;;;12.63;10.77;;;;;;;10.52;42.17;98936.50;4934596;29;20209;-79
2021/03/11 12:38:19;;;;;;;15.03;12.63;;;;;;;10.49;42.63;98932.44;4933593;29;20289;-82
2021/03/11 12:41:19;;;;;;;15.53;12.20;;;;;;;10.37;43.14;98928.13;4934674;29;20230;-81
2021/03/11 12:44:02;;;;;;;17.13;13.23;;;;;;;10.13;43.53;98900.53;4933591;29;20241;-81
2021/03/11 12:46:50;;;;;;;18.97;14.97;;;;;;;9.94;44.84;98923.09;4933105;29;20230;-78
2021/03/11 12:49:38;;;;;;;16.27;14.33;;;;;;;9.71;45.78;98935.41;4924765;29;20265;-82
2021/03/11 12:52:23;;;;;;;18.67;15.07;;;;;;;9.49;46.71;98925.50;4926990;29;20261;-80
2021/03/11 12:55:31;;;;;;;19.37;15.30;;;;;;;9.28;47.23;98894.78;4930723;29;20238;-79
2021/03/11 12:58:20;;;;;;;19.57;14.37;;;;;;;9.32;47.60;98895.13;4931830;29;20230;-80
2021/03/11 13:01:04;;;;;;;20.73;15.20;;;;;;;9.30;47.71;98903.38;4915785;29;20349;-81
2021/03/11 13:03:50;;;;;;;19.30;16.27;;;;;;;9.09;48.02;98840.59;4909267;29;20301;-79
2021/03/11 13:06:47;;;;;;;19.07;15.77;;;;;;;9.29;48.80;98867.81;4913226;29;20234;-78
2021/03/11 13:09:45;;;;;;;19.73;15.80;;;;;;;9.51;47.64;98857.41;4914569;29;20266;-82
2021/03/11 13:12:43;;;;;;;21.00;16.43;;;;;;;9.97;46.67;98864.59;4915557;29;20253;-81
2021/03/11 13:15:36;;;;;;;20.43;16.17;;;;;;;10.20;45.77;98853.09;4932558;29;20249;-78
2021/03/11 13:18:44;;;;;;;19.93;16.53;;;;;;;10.48;44.73;98829.03;4934227;29;20256;-79
2021/03/11 13:21:37;;;;;;;21.07;17.03;;;;;;;10.84;44.13;98835.03;4911130;24;20269;-78
2021/03/11 13:24:28;;;;;;;20.57;16.73;;;;;;;10.72;44.00;98816.34;4917374;29;20232;-79
2021/03/11 13:27:25;;;;;;;19.93;16.60;;;;;;;11.24;43.54;98837.63;4940033;29;20250;-79
2021/03/11 13:30:06;;;;;;;20.40;16.60;;;;;;;11.25;42.71;98802.53;4934999;29;20221;-77
2021/03/11 13:32:50;;;;;;;20.27;16.33;;;;;;;11.41;42.51;98799.03;4952502;29;20229;-79
2021/03/11 13:35:20;;;;;;;19.43;16.07;;;;;;;11.29;42.39;98806.34;4920257;29;20229;-80
2021/03/11 13:37:47;;;;;;;21.50;17.00;;;;;;;11.18;42.87;98787.66;4952840;29;20252;-78
2021/03/11 13:40:18;;;;;;;20.13;17.33;;;;;;;11.29;42.71;98797.50;4919823;29;20217;-79
2021/03/11 13:42:47;;;;;;;19.63;17.07;;;;;;;11.12;42.87;98781.41;4951896;29;20270;-82
2021/03/11 13:45:17;;;;;;;19.80;16.40;;;;;;;10.74;43.12;98736.53;4935701;29;20503;-79
2021/03/11 13:47:43;;;;;;;20.37;17.03;;;;;;;11.04;42.90;98785.31;4951222;29;20236;-79